Time;durP1;ratioP1;P1;durP2;ratioP2;P2;SDS_P1;SDS_P2;PMS_P1;PMS_P2;Temp;Humidity;BMP_temperature;BMP_pressure;BME280_temperature;BME280_humidity;BME280_pressure;Samples;Min_cycle;Max_cycle;Signal;HPM_P1;HPM_P2
2021/04/22 00:01:33;;;;;;;15.33;13.73;;;12.20;77.00;;;;;;5037342;28;20454;-87
2021/04/22 00:04:00;;;;;;;16.70;12.90;;;12.20;77.00;;;;;;5035993;28;20484;-88
2021/04/22 00:06:27;;;;;;;14.97;13.37;;;12.10;77.10;;;;;;5036228;28;20872;-88
2021/04/22 00:08:53;;;;;;;14.17;12.73;;;12.20;77.10;;;;;;5037097;28;20932;-88
2021/04/22 00:11:19;;;;;;;15.63;14.13;;;12.20;77.00;;;;;;5036601;28;20483;-88
2021/04/22 00:13:47;;;;;;;17.60;12.90;;;12.20;77.20;;;;;;5036239;28;20560;-87
2021/04/22 00:16:14;;;;;;;15.03;12.73;;;12.30;77.50;;;;;;5036240;28;20620;-87
2021/04/22 00:18:41;;;;;;;15.10;13.47;;;12.20;77.50;;;;;;5037184;28;20450;-86
2021/04/22 00:21:08;;;;;;;16.73;15.00;;;12.30;78.00;;;;;;5042391;28;20603;-86
2021/04/22 00:23:37;;;;;;;20.23;16.83;;;12.30;78.30;;;;;;5036283;28;20850;-87
2021/04/22 00:26:04;;;;;;;20.67;16.03;;;12.30;78.30;;;;;;5054589;28;20461;-88
2021/04/22 00:28:30;;;;;;;21.60;16.90;;;12.30;78.50;;;;;;5048923;28;20456;-88
2021/04/22 00:30:58;;;;;;;16.70;15.00;;;12.30;78.60;;;;;;5053360;28;20489;-88
2021/04/22 00:33:25;;;;;;;21.30;14.13;;;12.40;78.60;;;;;;5045051;28;20473;-87
2021/04/22 00:35:52;;;;;;;14.10;12.70;;;12.40;78.70;;;;;;5038152;28;20457;-87
2021/04/22 00:38:19;;;;;;;17.00;13.20;;;12.50;78.60;;;;;;5038563;28;20453;-88
2021/04/22 00:40:47;;;;;;;15.50;13.67;;;12.40;78.00;;;;;;5038322;28;20441;-88
2021/04/22 00:43:16;;;;;;;16.83;14.60;;;12.50;77.50;;;;;;5037253;28;20478;-87
2021/04/22 00:45:43;;;;;;;14.60;13.10;;;12.50;77.30;;;;;;5058874;28;20443;-87
2021/04/22 00:48:11;;;;;;;15.93;14.33;;;12.50;77.40;;;;;;5048354;28;20450;-88
2021/04/22 00:50:39;;;;;;;15.30;13.80;;;12.60;77.60;;;;;;5038128;28;20487;-88
2021/04/22 00:53:07;;;;;;;16.60;15.03;;;12.60;77.40;;;;;;5037699;28;20473;-87
2021/04/22 00:55:34;;;;;;;15.03;13.07;;;12.60;77.70;;;;;;5028464;28;20502;-87
2021/04/22 00:58:02;;;;;;;15.23;13.73;;;12.60;76.80;;;;;;5039161;28;20446;-88
2021/04/22 01:00:32;;;;;;;15.60;14.10;;;12.70;80.00;;;;;;5021072;28;20533;-88
2021/04/22 01:02:59;;;;;;;15.03;13.60;;;12.50;80.60;;;;;;5024276;28;20475;-88
2021/04/22 01:05:30;;;;;;;16.30;14.80;;;12.40;82.30;;;;;;5044911;28;20958;-88
2021/04/22 01:07:57;;;;;;;16.00;14.40;;;12.30;84.40;;;;;;5038756;28;20548;-88
2021/04/22 01:10:24;;;;;;;16.87;15.20;;;12.20;86.60;;;;;;5042445;28;20489;-88
2021/04/22 01:12:50;;;;;;;15.70;14.23;;;12.20;87.90;;;;;;5059389;28;20537;-88
2021/04/22 01:15:18;;;;;;;16.40;14.53;;;12.10;87.90;;;;;;5059437;28;20429;-88
2021/04/22 01:17:45;;;;;;;18.23;15.43;;;12.10;89.30;;;;;;5058930;28;20438;-87
2021/04/22 01:20:15;;;;;;;19.00;17.40;;;12.10;89.90;;;;;;5057217;28;20512;-88
2021/04/22 01:22:43;;;;;;;17.10;15.40;;;12.20;90.10;;;;;;5038125;28;20499;-88
2021/04/22 01:25:12;;;;;;;17.43;15.77;;;12.30;91.80;;;;;;5047918;28;20477;-88
2021/04/22 01:27:39;;;;;;;19.63;15.57;;;12.20;91.80;;;;;;5039274;28;20457;-88
2021/04/22 01:30:08;;;;;;;17.30;15.60;;;12.10;91.60;;;;;;5036477;28;20568;-88
2021/04/22 01:32:35;;;;;;;18.93;17.03;;;12.00;92.50;;;;;;5035818;28;20498;-88
2021/04/22 01:35:01;;;;;;;20.53;16.50;;;12.00;92.80;;;;;;5035219;28;20453;-88
2021/04/22 01:37:29;;;;;;;19.67;17.60;;;11.90;93.70;;;;;;5036779;28;20454;-87
2021/04/22 01:39:57;;;;;;;17.80;16.00;;;12.00;95.00;;;;;;5036815;28;20456;-88
2021/04/22 01:42:23;;;;;;;17.60;15.77;;;12.00;95.00;;;;;;5038791;28;20469;-87
2021/04/22 01:44:50;;;;;;;18.37;16.47;;;12.00;94.70;;;;;;5041556;28;20481;-88
2021/04/22 01:47:16;;;;;;;18.00;16.20;;;12.10;95.10;;;;;;5056634;28;20441;-88
2021/04/22 01:49:43;;;;;;;22.20;19.70;;;12.10;95.80;;;;;;5038416;28;20515;-88
2021/04/22 01:52:09;;;;;;;20.27;18.13;;;12.10;96.30;;;;;;5035971;28;21049;-88
2021/04/22 01:54:35;;;;;;;18.63;16.63;;;12.10;96.10;;;;;;5047740;28;20500;-88
2021/04/22 01:57:03;;;;;;;19.03;17.10;;;12.10;96.40;;;;;;5052712;28;20454;-88
2021/04/22 01:59:29;;;;;;;20.10;17.97;;;12.20;96.60;;;;;;5035713;28;20447;-87
2021/04/22 02:01:55;;;;;;;19.40;17.47;;;12.20;96.60;;;;;;5039948;28;20465;-87
2021/04/22 02:04:22;;;;;;;20.03;18.23;;;12.20;96.40;;;;;;5035746;28;20823;-87
2021/04/22 02:06:48;;;;;;;16.77;15.30;;;12.20;96.20;;;;;;5038785;28;20446;-87
2021/04/22 02:09:14;;;;;;;19.27;17.47;;;12.20;96.10;;;;;;5035231;28;20451;-87
2021/04/22 02:11:41;;;;;;;20.60;18.60;;;12.10;96.10;;;;;;5047039;28;20529;-88
2021/04/22 02:14:08;;;;;;;20.30;18.40;;;12.20;96.70;;;;;;5038104;28;20449;-88
2021/04/22 02:16:35;;;;;;;17.57;15.87;;;12.20;96.90;;;;;;5034373;28;20454;-87
2021/04/22 02:19:01;;;;;;;21.80;19.60;;;12.30;96.80;;;;;;5034572;28;20446;-88
2021/04/22 02:21:27;;;;;;;19.83;17.83;;;12.20;96.20;;;;;;5034210;28;20450;-88
2021/04/22 02:23:54;;;;;;;20.07;18.07;;;12.10;96.20;;;;;;5034672;28;20449;-88
2021/04/22 02:26:20;;;;;;;24.23;19.83;;;12.00;96.20;;;;;;5040293;28;20499;-88
2021/04/22 02:28:47;;;;;;;20.53;18.27;;;11.90;96.90;;;;;;5034677;28;20917;-87
2021/04/22 02:31:14;;;;;;;21.53;19.20;;;11.90;96.30;;;;;;5034625;28;20480;-88
2021/04/22 02:33:41;;;;;;;21.93;19.63;;;11.80;97.10;;;;;;5036553;28;20977;-88
2021/04/22 02:36:07;;;;;;;19.03;17.33;;;11.70;96.90;;;;;;5057359;28;21041;-88
2021/04/22 02:38:34;;;;;;;20.70;18.70;;;11.70;97.10;;;;;;5043535;28;21167;-88
2021/04/22 02:41:00;;;;;;;21.73;19.50;;;11.60;97.50;;;;;;5035369;28;20520;-88
2021/04/22 02:43:26;;;;;;;21.80;19.80;;;11.60;98.20;;;;;;5046756;28;20477;-87
2021/04/22 02:45:56;;;;;;;22.30;20.07;;;11.60;98.40;;;;;;5055624;28;20441;-87
2021/04/22 02:48:24;;;;;;;24.57;22.10;;;11.60;98.80;;;;;;5053463;28;20564;-88
2021/04/22 02:50:53;;;;;;;24.20;21.70;;;11.70;98.80;;;;;;5040356;28;20489;-87
2021/04/22 02:53:21;;;;;;;22.53;20.23;;;11.70;98.50;;;;;;5038305;28;20503;-88
2021/04/22 02:55:48;;;;;;;24.93;22.60;;;11.70;98.10;;;;;;5039340;28;20458;-87
2021/04/22 02:58:16;;;;;;;23.80;21.40;;;11.70;97.70;;;;;;5041032;28;20459;-88
2021/04/22 03:00:45;;;;;;;23.87;21.37;;;11.70;97.20;;;;;;5038866;28;20511;-88
2021/04/22 03:03:12;;;;;;;24.00;21.60;;;11.80;97.20;;;;;;5040848;28;20500;-88
2021/04/22 03:05:40;;;;;;;23.63;20.83;;;11.80;97.50;;;;;;5043524;28;20990;-87
2021/04/22 03:08:07;;;;;;;26.10;23.40;;;11.80;97.60;;;;;;5040901;28;20453;-87
2021/04/22 03:10:35;;;;;;;26.23;23.43;;;11.90;97.70;;;;;;5052505;28;20538;-87
2021/04/22 03:13:03;;;;;;;25.57;22.13;;;11.80;97.50;;;;;;5061188;28;20457;-88
2021/04/22 03:15:30;;;;;;;25.57;23.03;;;11.90;97.60;;;;;;5060217;28;20437;-87
2021/04/22 03:17:56;;;;;;;25.67;23.10;;;11.90;97.30;;;;;;5060515;28;20500;-87
2021/04/22 03:20:24;;;;;;;26.03;23.50;;;11.90;97.00;;;;;;5060431;28;20460;-88
2021/04/22 03:22:52;;;;;;;25.67;22.97;;;11.90;96.90;;;;;;5059949;28;20465;-87
2021/04/22 03:25:22;;;;;;;25.83;22.87;;;11.90;97.10;;;;;;5048940;28;20481;-87
2021/04/22 03:27:49;;;;;;;24.07;21.50;;;11.90;97.20;;;;;;5039982;28;20518;-88
2021/04/22 03:30:17;;;;;;;25.23;22.70;;;11.90;97.10;;;;;;5038420;28;20487;-86
2021/04/22 03:32:44;;;;;;;27.57;24.67;;;11.80;96.80;;;;;;5037823;28;20477;-86
2021/04/22 03:35:12;;;;;;;25.13;22.57;;;11.90;96.50;;;;;;5039658;28;20453;-86
2021/04/22 03:37:39;;;;;;;23.83;21.40;;;11.80;96.40;;;;;;5039337;28;20441;-86
2021/04/22 03:40:09;;;;;;;22.87;20.67;;;11.90;96.30;;;;;;5038617;28;20488;-86
2021/04/22 03:42:36;;;;;;;24.20;20.77;;;11.80;95.70;;;;;;5040274;28;20484;-86
2021/04/22 03:45:03;;;;;;;22.80;20.33;;;11.80;95.70;;;;;;5039890;28;20453;-86
2021/04/22 03:47:30;;;;;;;24.30;20.57;;;11.70;95.40;;;;;;5039384;28;20456;-86
2021/04/22 03:49:57;;;;;;;21.17;19.17;;;11.70;94.90;;;;;;5041931;28;20483;-87
2021/04/22 03:52:24;;;;;;;22.57;20.27;;;11.70;95.00;;;;;;5045851;28;20472;-87
2021/04/22 03:54:52;;;;;;;25.57;22.97;;;11.60;95.00;;;;;;5039409;28;20453;-87
2021/04/22 03:57:20;;;;;;;22.80;20.60;;;11.60;95.10;;;;;;5053446;28;20446;-87
2021/04/22 03:59:46;;;;;;;25.37;20.93;;;11.60;95.00;;;;;;5039775;28;20480;-88
2021/04/22 04:02:13;;;;;;;25.03;21.70;;;11.60;95.10;;;;;;5054629;28;20478;-87
2021/04/22 04:04:39;;;;;;;24.17;21.60;;;11.50;95.10;;;;;;5060038;28;20479;-87
2021/04/22 04:07:06;;;;;;;24.00;21.70;;;11.50;95.10;;;;;;5051588;28;20452;-87
2021/04/22 04:09:32;;;;;;;24.43;22.13;;;11.40;95.20;;;;;;5058460;28;20444;-87
2021/04/22 04:11:59;;;;;;;25.37;23.07;;;11.30;95.40;;;;;;5064951;28;20506;-87
2021/04/22 04:14:27;;;;;;;23.60;21.30;;;11.20;95.70;;;;;;5050825;28;20444;-87
2021/04/22 04:16:54;;;;;;;25.83;21.27;;;11.20;95.70;;;;;;5048636;28;20445;-87
2021/04/22 04:19:21;;;;;;;25.33;21.63;;;11.20;95.80;;;;;;5052662;28;20445;-87
2021/04/22 04:21:48;;;;;;;27.23;22.80;;;11.20;95.70;;;;;;5049492;28;20452;-86
2021/04/22 04:27:27;;;;;;;24.07;21.47;;;11.00;95.80;;;;;;5058509;28;20432;-86
2021/04/22 04:30:01;;;;;;;25.17;22.40;;;10.90;96.00;;;;;;5069664;28;20488;-87
2021/04/22 04:32:31;;;;;;;25.77;23.17;;;10.80;95.80;;;;;;5052621;28;20448;-87
2021/04/22 04:34:58;;;;;;;25.23;22.63;;;10.90;95.80;;;;;;5049244;28;20778;-87
2021/04/22 04:37:24;;;;;;;27.33;23.93;;;10.80;95.90;;;;;;5050033;28;20479;-87
2021/04/22 04:39:51;;;;;;;27.07;22.47;;;10.70;96.10;;;;;;5038195;28;20441;-87
2021/04/22 04:42:17;;;;;;;26.10;23.50;;;10.70;96.10;;;;;;5057281;28;20449;-86
2021/04/22 04:44:44;;;;;;;26.80;24.10;;;10.80;96.00;;;;;;5056667;28;20413;-87
2021/04/22 04:47:11;;;;;;;27.30;24.37;;;10.70;96.00;;;;;;5041143;28;20445;-87
2021/04/22 04:49:37;;;;;;;28.97;25.80;;;10.60;96.00;;;;;;5037105;28;20445;-87
2021/04/22 04:52:04;;;;;;;29.27;26.17;;;10.70;95.90;;;;;;5046553;28;20493;-87
2021/04/22 04:54:30;;;;;;;26.00;22.50;;;10.70;95.80;;;;;;5049909;28;21084;-88
2021/04/22 04:56:57;;;;;;;26.63;23.93;;;10.70;95.80;;;;;;5038865;28;20520;-87
2021/04/22 04:59:24;;;;;;;31.47;23.00;;;10.80;95.70;;;;;;5052259;28;20461;-88
2021/04/22 05:01:50;;;;;;;26.00;23.27;;;10.70;96.00;;;;;;5052329;28;20465;-87
2021/04/22 05:04:17;;;;;;;27.63;24.90;;;10.80;96.00;;;;;;5052755;28;20984;-87
2021/04/22 05:06:43;;;;;;;28.20;24.80;;;10.90;95.40;;;;;;5041028;28;20453;-88
2021/04/22 05:09:10;;;;;;;30.03;25.13;;;10.90;95.20;;;;;;5044295;28;20439;-88
2021/04/22 05:11:36;;;;;;;29.77;25.63;;;11.00;95.00;;;;;;5041800;28;20492;-88
2021/04/22 05:14:03;;;;;;;35.50;26.57;;;11.10;95.10;;;;;;5036514;28;20457;-88
2021/04/22 05:16:29;;;;;;;28.03;23.80;;;11.20;94.90;;;;;;5039051;28;20962;-87
2021/04/22 05:18:55;;;;;;;27.53;24.47;;;11.20;94.70;;;;;;5039557;28;20461;-87
2021/04/22 05:21:23;;;;;;;29.17;25.80;;;11.20;94.80;;;;;;5040790;28;20445;-87
2021/04/22 05:23:49;;;;;;;28.10;25.13;;;11.30;94.60;;;;;;5039044;28;20474;-88
2021/04/22 05:26:16;;;;;;;26.20;23.53;;;11.30;94.40;;;;;;5052537;28;20428;-87
2021/04/22 05:28:42;;;;;;;27.17;24.40;;;11.40;94.20;;;;;;5054068;28;20505;-88
2021/04/22 05:31:09;;;;;;;31.63;23.57;;;11.50;94.10;;;;;;5048742;28;20473;-87
2021/04/22 05:33:35;;;;;;;30.20;26.17;;;11.60;93.80;;;;;;5052060;28;20510;-88
2021/04/22 05:36:01;;;;;;;27.27;24.20;;;11.70;93.50;;;;;;5036351;28;20489;-88
2021/04/22 05:38:29;;;;;;;26.90;23.73;;;11.80;93.20;;;;;;5039414;28;20958;-87
2021/04/22 05:40:55;;;;;;;30.23;22.57;;;11.90;93.00;;;;;;5040813;28;20530;-87
2021/04/22 05:43:22;;;;;;;25.93;23.30;;;11.90;92.80;;;;;;5036163;28;20571;-87
2021/04/22 05:45:48;;;;;;;27.43;24.03;;;12.00;92.60;;;;;;5033190;28;20437;-88
2021/04/22 05:48:14;;;;;;;24.43;21.83;;;12.10;92.30;;;;;;5048370;28;20499;-88
2021/04/22 05:50:41;;;;;;;29.20;22.53;;;12.20;92.20;;;;;;5036112;28;20881;-88
2021/04/22 05:53:07;;;;;;;25.73;23.17;;;12.30;91.90;;;;;;5035161;28;20527;-87
2021/04/22 05:55:34;;;;;;;28.70;24.33;;;12.50;91.70;;;;;;5035136;28;20906;-87
2021/04/22 05:58:01;;;;;;;25.47;22.87;;;12.60;91.20;;;;;;5034338;28;20440;-88
2021/04/22 06:00:30;;;;;;;25.80;23.20;;;12.60;90.90;;;;;;5035843;28;20440;-87
2021/04/22 06:02:57;;;;;;;25.63;22.90;;;12.60;90.60;;;;;;5035354;28;20470;-87
2021/04/22 06:05:23;;;;;;;23.37;21.17;;;12.50;90.60;;;;;;5036614;28;20829;-87
2021/04/22 06:07:49;;;;;;;24.87;22.23;;;12.50;90.70;;;;;;5035304;28;20449;-87
2021/04/22 06:10:16;;;;;;;26.03;22.60;;;12.40;90.60;;;;;;5037181;28;20429;-87
2021/04/22 06:12:44;;;;;;;24.20;21.70;;;12.30;90.80;;;;;;5036111;28;20846;-87
2021/04/22 06:15:11;;;;;;;24.17;20.97;;;12.30;90.80;;;;;;5044092;28;20499;-87
2021/04/22 06:17:37;;;;;;;25.33;22.63;;;12.30;90.80;;;;;;5056757;28;20476;-88
2021/04/22 06:20:08;;;;;;;24.83;21.17;;;12.40;90.90;;;;;;5042125;28;21098;-87
2021/04/22 06:22:34;;;;;;;27.17;23.37;;;12.40;90.70;;;;;;5036665;28;20464;-88
2021/04/22 06:25:00;;;;;;;24.50;21.90;;;12.50;90.60;;;;;;5047935;28;20433;-88
2021/04/22 06:27:27;;;;;;;24.53;21.93;;;12.50;90.70;;;;;;5042758;28;20446;-87
2021/04/22 06:29:54;;;;;;;24.97;22.57;;;12.60;90.40;;;;;;5037121;28;20460;-87
2021/04/22 06:32:20;;;;;;;27.30;22.90;;;12.60;90.80;;;;;;5035775;28;20906;-88
2021/04/22 06:34:46;;;;;;;23.20;21.00;;;12.70;90.40;;;;;;5035460;28;20445;-88
2021/04/22 06:37:13;;;;;;;25.60;21.43;;;12.70;90.10;;;;;;5035531;28;20477;-88
2021/04/22 06:39:39;;;;;;;24.60;22.00;;;12.60;89.80;;;;;;5031763;28;20445;-87
2021/04/22 06:42:06;;;;;;;25.30;21.50;;;12.50;90.00;;;;;;5035055;28;20469;-87
2021/04/22 06:44:32;;;;;;;23.57;21.20;;;12.50;90.00;;;;;;5035234;28;20441;-88
2021/04/22 06:46:59;;;;;;;24.67;21.57;;;12.50;90.20;;;;;;5035135;28;20443;-87
2021/04/22 06:49:26;;;;;;;23.13;20.73;;;12.50;90.10;;;;;;5054604;28;20448;-88
2021/04/22 06:51:52;;;;;;;22.77;20.23;;;12.50;90.10;;;;;;5056782;28;20565;-87
2021/04/22 06:54:19;;;;;;;25.70;22.87;;;12.50;90.00;;;;;;5034209;28;20898;-87
2021/04/22 06:56:45;;;;;;;26.83;21.70;;;12.60;89.60;;;;;;5039823;28;20445;-86
2021/04/22 06:59:12;;;;;;;24.57;20.60;;;12.80;89.00;;;;;;5056522;28;20437;-87
2021/04/22 07:01:38;;;;;;;23.10;19.40;;;12.90;88.60;;;;;;5050691;28;20414;-88
2021/04/22 07:04:05;;;;;;;22.47;20.23;;;13.00;87.70;;;;;;5051930;28;20436;-88
2021/04/22 07:06:32;;;;;;;24.77;20.50;;;13.10;86.80;;;;;;5042275;28;20445;-87
2021/04/22 07:08:58;;;;;;;23.97;21.50;;;13.20;86.20;;;;;;5048457;28;20439;-88
2021/04/22 07:11:24;;;;;;;21.53;19.40;;;13.20;85.50;;;;;;5052880;28;20501;-87
2021/04/22 07:13:51;;;;;;;22.63;18.87;;;13.30;85.30;;;;;;5051041;28;20507;-88
2021/04/22 07:16:18;;;;;;;23.73;19.70;;;13.40;84.50;;;;;;5049569;28;20437;-88
2021/04/22 07:18:44;;;;;;;21.20;18.93;;;13.70;83.90;;;;;;5063160;28;20488;-88
2021/04/22 07:21:11;;;;;;;21.90;18.97;;;13.80;83.00;;;;;;5056746;28;20442;-88
2021/04/22 07:23:37;;;;;;;19.53;17.30;;;14.00;82.10;;;;;;5042299;28;20477;-85
2021/04/22 07:26:04;;;;;;;19.10;17.10;;;14.40;80.70;;;;;;5037946;28;20445;-88
2021/04/22 07:28:32;;;;;;;21.13;18.33;;;14.70;79.10;;;;;;5037938;28;20520;-90
2021/04/22 07:31:00;;;;;;;18.80;16.60;;;14.90;77.80;;;;;;5041271;28;20469;-90
2021/04/22 07:33:26;;;;;;;18.27;16.30;;;15.10;76.30;;;;;;5040813;28;20476;-89
2021/04/22 07:35:53;;;;;;;20.63;16.13;;;15.20;75.00;;;;;;5039316;28;20459;-90
2021/04/22 07:38:20;;;;;;;18.77;15.60;;;15.20;74.50;;;;;;5053846;28;20442;-89
2021/04/22 07:40:47;;;;;;;18.60;16.63;;;15.20;74.50;;;;;;5054616;28;20524;-89
2021/04/22 07:43:14;;;;;;;20.40;17.10;;;15.30;74.30;;;;;;5057888;28;20548;-89
2021/04/22 07:45:43;;;;;;;23.30;17.87;;;15.10;74.10;;;;;;5053174;28;20887;-89
2021/04/22 07:48:11;;;;;;;19.17;15.57;;;15.10;74.00;;;;;;5049814;28;20454;-89
2021/04/22 07:50:38;;;;;;;21.77;17.87;;;15.00;74.20;;;;;;5049117;28;20480;-86
2021/04/22 07:53:06;;;;;;;21.43;15.83;;;15.30;74.00;;;;;;5038850;28;20865;-86
2021/04/22 07:55:36;;;;;;;19.07;17.17;;;15.80;73.10;;;;;;5038940;28;20478;-86
2021/04/22 07:58:03;;;;;;;17.20;15.37;;;16.40;70.80;;;;;;5039456;28;20452;-86
2021/04/22 08:00:31;;;;;;;19.17;16.30;;;16.70;69.00;;;;;;5037108;28;20457;-86
2021/04/22 08:02:57;;;;;;;18.13;16.00;;;17.20;68.30;;;;;;5037603;28;20476;-86
2021/04/22 08:05:26;;;;;;;17.53;15.80;;;17.90;65.30;;;;;;5037935;28;20449;-86
2021/04/22 08:07:52;;;;;;;16.70;15.00;;;18.00;63.60;;;;;;5037601;28;20449;-86
2021/04/22 08:10:22;;;;;;;17.90;16.20;;;19.00;61.30;;;;;;5042661;28;20438;-86
2021/04/22 08:12:50;;;;;;;17.20;15.13;;;19.80;59.20;;;;;;5058113;28;20465;-86
2021/04/22 08:15:18;;;;;;;17.20;15.60;;;20.10;57.40;;;;;;5044923;28;20448;-86
2021/04/22 08:17:45;;;;;;;16.37;14.93;;;19.90;56.50;;;;;;5037575;28;20498;-86
2021/04/22 08:20:14;;;;;;;16.87;14.83;;;19.60;56.80;;;;;;5036557;28;20495;-88
2021/04/22 08:22:41;;;;;;;17.77;15.30;;;18.90;57.60;;;;;;5034251;28;20461;-86
2021/04/22 08:25:11;;;;;;;15.27;13.77;;;18.60;58.10;;;;;;5037926;28;20450;-86
2021/04/22 08:27:38;;;;;;;15.10;13.50;;;18.60;58.50;;;;;;5037085;28;20957;-85
2021/04/22 08:30:07;;;;;;;16.00;14.30;;;19.20;58.40;;;;;;5051129;28;20452;-86
2021/04/22 08:32:33;;;;;;;15.80;14.20;;;20.00;56.80;;;;;;5036579;28;20484;-86
2021/04/22 08:35:00;;;;;;;16.97;15.17;;;20.50;55.00;;;;;;5035327;28;20457;-86
2021/04/22 08:37:26;;;;;;;17.13;15.47;;;20.10;54.40;;;;;;5035647;28;20437;-86
2021/04/22 08:39:52;;;;;;;16.37;14.67;;;20.40;54.20;;;;;;5035771;28;20841;-86
2021/04/22 08:42:20;;;;;;;16.77;14.87;;;20.10;53.90;;;;;;5035490;28;20537;-86
2021/04/22 08:44:47;;;;;;;14.80;13.40;;;19.80;54.70;;;;;;5035552;28;20492;-86
2021/04/22 08:47:14;;;;;;;16.33;14.60;;;20.40;54.50;;;;;;5035286;28;20449;-86
2021/04/22 08:49:41;;;;;;;16.23;14.53;;;20.60;53.40;;;;;;5032428;28;20813;-86
2021/04/22 08:52:08;;;;;;;20.43;14.00;;;20.30;52.70;;;;;;5034021;28;20488;-85
2021/04/22 08:54:34;;;;;;;15.67;13.10;;;19.70;53.20;;;;;;5033056;28;20524;-85
2021/04/22 08:57:00;;;;;;;16.50;14.70;;;19.10;53.90;;;;;;5034781;28;20448;-85
2021/04/22 08:59:27;;;;;;;15.27;13.63;;;19.30;54.60;;;;;;5034656;28;20539;-87
2021/04/22 09:01:53;;;;;;;13.30;11.63;;;20.70;53.10;;;;;;5040861;28;20434;-86
2021/04/22 09:04:20;;;;;;;18.70;13.43;;;21.50;50.90;;;;;;5039570;28;21005;-86
2021/04/22 09:06:46;;;;;;;12.73;11.43;;;22.50;48.90;;;;;;5037098;28;21105;-86
2021/04/22 09:09:13;;;;;;;14.70;13.37;;;22.20;47.70;;;;;;5035110;28;20555;-86
2021/04/22 09:11:45;;;;;;;14.57;13.17;;;22.70;47.40;;;;;;5036982;28;20496;-86
2021/04/22 09:14:13;;;;;;;14.43;12.90;;;22.80;48.40;;;;;;5035738;28;20468;-85
2021/04/22 09:16:40;;;;;;;15.20;12.30;;;23.90;46.80;;;;;;5035013;28;20480;-86
2021/04/22 09:19:08;;;;;;;13.47;12.17;;;25.40;45.20;;;;;;5045845;28;20444;-85
2021/04/22 09:21:40;;;;;;;14.17;12.73;;;25.50;43.10;;;;;;5034499;28;20435;-87
2021/04/22 09:24:11;;;;;;;14.37;12.90;;;24.90;43.20;;;;;;5035750;28;20447;-86
2021/04/22 09:26:40;;;;;;;12.90;11.67;;;24.60;42.90;;;;;;5034974;28;20451;-85
2021/04/22 09:29:08;;;;;;;14.37;12.87;;;25.00;43.60;;;;;;5036778;28;20973;-86
2021/04/22 09:31:35;;;;;;;12.80;11.30;;;25.30;42.30;;;;;;5042864;28;21039;-86
2021/04/22 09:34:07;;;;;;;13.97;11.80;;;26.10;41.40;;;;;;5046788;28;20455;-86
2021/04/22 09:36:46;;;;;;;12.53;11.23;;;26.30;40.00;;;;;;5050057;28;20428;-87
2021/04/22 09:39:15;;;;;;;13.33;11.63;;;27.10;38.80;;;;;;5042705;28;20528;-86
2021/04/22 09:41:42;;;;;;;12.80;11.60;;;26.70;39.00;;;;;;5051148;28;20464;-86
2021/04/22 09:44:15;;;;;;;11.80;10.80;;;27.70;37.70;;;;;;5056992;28;20448;-86
2021/04/22 09:46:45;;;;;;;11.53;10.00;;;26.80;37.90;;;;;;5045318;28;20449;-86
2021/04/22 09:49:13;;;;;;;14.10;11.10;;;27.80;37.70;;;;;;5056349;28;20421;-86
2021/04/22 09:51:40;;;;;;;10.83;9.60;;;28.10;36.40;;;;;;5042191;28;20477;-86
2021/04/22 09:54:10;;;;;;;11.43;9.87;;;28.80;35.70;;;;;;5037008;28;20450;-86
2021/04/22 09:56:49;;;;;;;10.40;9.30;;;29.10;34.50;;;;;;5036391;28;20454;-86
2021/04/22 09:59:19;;;;;;;11.00;9.90;;;27.40;35.50;;;;;;5051200;28;20453;-86
2021/04/22 10:01:49;;;;;;;10.63;9.43;;;27.50;35.80;;;;;;5055049;28;20464;-86
2021/04/22 10:04:17;;;;;;;13.47;9.00;;;28.30;35.00;;;;;;5043577;28;20443;-85
2021/04/22 10:06:51;;;;;;;10.13;9.03;;;28.70;33.90;;;;;;5053139;28;20466;-87
2021/04/22 10:09:34;;;;;;;10.80;9.33;;;28.80;32.70;;;;;;5052886;28;20440;-87
2021/04/22 10:12:01;;;;;;;9.60;8.30;;;29.00;32.50;;;;;;5035682;28;20489;-87
2021/04/22 10:14:34;;;;;;;10.23;7.80;;;29.20;31.70;;;;;;5041808;28;20432;-87
2021/04/22 10:17:22;;;;;;;9.17;7.67;;;28.20;32.20;;;;;;5037497;28;20807;-88
2021/04/22 10:20:08;;;;;;;7.63;6.70;;;29.50;31.50;;;;;;5033300;28;20475;-86
2021/04/22 10:22:40;;;;;;;12.40;7.67;;;29.60;29.30;;;;;;5036452;28;20480;-88
2021/04/22 10:25:09;;;;;;;9.17;7.80;;;29.20;29.60;;;;;;5037533;28;20442;-87
2021/04/22 10:27:37;;;;;;;7.43;6.60;;;28.90;29.50;;;;;;5036917;28;20446;-87
2021/04/22 10:30:06;;;;;;;9.37;7.50;;;29.30;29.40;;;;;;5036558;28;20441;-87
2021/04/22 10:32:33;;;;;;;9.47;7.00;;;29.50;28.80;;;;;;5037045;28;20491;-87
2021/04/22 10:35:00;;;;;;;6.50;5.90;;;30.80;27.50;;;;;;5042077;28;20445;-86
2021/04/22 10:37:28;;;;;;;6.70;6.10;;;31.20;26.30;;;;;;5038342;28;20448;-86
2021/04/22 10:39:57;;;;;;;5.90;5.17;;;31.20;26.00;;;;;;5045994;28;20453;-85
2021/04/22 10:42:25;;;;;;;5.70;5.20;;;31.80;25.60;;;;;;5035558;28;20467;-86
2021/04/22 10:44:52;;;;;;;6.93;6.27;;;32.80;24.90;;;;;;5034634;28;20471;-85
2021/04/22 10:47:18;;;;;;;12.43;5.90;;;32.10;24.90;;;;;;5044553;28;20437;-85
2021/04/22 10:49:45;;;;;;;7.43;6.13;;;31.70;24.90;;;;;;5041554;28;20452;-86
2021/04/22 10:52:13;;;;;;;7.73;6.00;;;30.80;25.10;;;;;;5052234;28;20476;-85
2021/04/22 10:54:41;;;;;;;8.93;5.90;;;30.70;24.80;;;;;;5053402;28;20475;-85
2021/04/22 10:57:09;;;;;;;9.90;5.80;;;30.80;25.20;;;;;;5044933;28;20441;-85
2021/04/22 10:59:36;;;;;;;7.30;5.60;;;31.60;24.30;;;;;;5046310;28;20445;-85
2021/04/22 11:02:23;;;;;;;5.13;4.63;;;31.50;23.40;;;;;;5052890;28;20465;-86
2021/04/22 11:04:51;;;;;;;5.60;5.00;;;31.90;22.50;;;;;;5043085;28;20437;-84
2021/04/22 11:07:20;;;;;;;7.40;4.20;;;32.20;21.90;;;;;;5051307;28;20463;-85
2021/04/22 11:09:48;;;;;;;3.73;3.30;;;30.90;22.30;;;;;;5057206;28;20499;-86
2021/04/22 11:12:23;;;;;;;6.33;3.93;;;30.80;22.50;;;;;;5040393;28;20468;-85
2021/04/22 11:14:52;;;;;;;6.07;4.03;;;31.10;21.70;;;;;;5058330;28;20468;-86
2021/04/22 11:17:20;;;;;;;6.23;5.17;;;29.10;21.50;;;;;;5058532;28;20509;-85
2021/04/22 11:19:48;;;;;;;5.10;4.00;;;29.30;22.90;;;;;;5056402;28;20456;-85
2021/04/22 11:22:20;;;;;;;8.20;4.77;;;29.80;22.00;;;;;;5057978;28;20460;-85
2021/04/22 11:24:53;;;;;;;6.20;4.57;;;30.40;22.60;;;;;;5056573;28;20452;-85
2021/04/22 11:27:21;;;;;;;5.10;4.20;;;31.40;22.00;;;;;;5056942;28;20437;-85
2021/04/22 11:29:49;;;;;;;9.57;5.20;;;31.50;21.70;;;;;;5055650;28;20441;-85
2021/04/22 11:32:22;;;;;;;10.30;5.73;;;31.80;21.40;;;;;;5056061;28;20502;-84
2021/04/22 11:34:49;;;;;;;7.10;4.27;;;31.50;21.20;;;;;;5056670;28;20447;-85
2021/04/22 11:37:18;;;;;;;4.77;4.17;;;31.30;20.90;;;;;;5049435;28;20451;-85
2021/04/22 11:39:44;;;;;;;5.43;4.07;;;31.50;20.80;;;;;;5039355;28;20449;-85
2021/04/22 11:42:11;;;;;;;4.03;3.63;;;31.80;20.30;;;;;;5038936;28;20499;-85
2021/04/22 11:44:39;;;;;;;6.30;3.93;;;32.60;19.70;;;;;;5040034;28;20452;-86
2021/04/22 11:47:21;;;;;;;5.20;3.80;;;32.30;19.60;;;;;;5043689;28;20445;-86
2021/04/22 11:49:48;;;;;;;7.80;3.40;;;31.60;19.30;;;;;;5042609;28;20439;-86
2021/04/22 11:52:21;;;;;;;4.43;3.23;;;29.40;20.50;;;;;;5053609;28;20493;-85
2021/04/22 11:54:47;;;;;;;5.23;3.23;;;30.20;20.30;;;;;;5047302;28;20488;-86
2021/04/22 11:57:15;;;;;;;4.77;3.60;;;31.80;19.90;;;;;;5040607;28;20441;-87
2021/04/22 11:59:42;;;;;;;5.80;3.47;;;32.60;18.50;;;;;;5045980;28;20452;-85
2021/04/22 12:02:10;;;;;;;4.93;3.40;;;32.10;18.10;;;;;;5059805;28;20452;-84
2021/04/22 12:04:40;;;;;;;5.00;3.67;;;33.40;18.20;;;;;;5048726;28;20463;-86
2021/04/22 12:07:13;;;;;;;5.87;3.80;;;33.40;18.20;;;;;;5040401;28;20453;-86
2021/04/22 12:09:41;;;;;;;5.00;3.90;;;32.80;18.50;;;;;;5040095;28;20507;-86
2021/04/22 12:12:19;;;;;;;7.00;4.43;;;32.50;19.30;;;;;;5048095;28;20469;-85
2021/04/22 12:14:50;;;;;;;4.63;3.70;;;32.20;19.10;;;;;;5058255;28;20445;-85
2021/04/22 12:17:28;;;;;;;5.97;3.90;;;32.20;19.10;;;;;;5041908;28;20453;-86
2021/04/22 12:19:58;;;;;;;5.17;3.60;;;32.10;19.70;;;;;;5036906;28;20460;-85
2021/04/22 12:22:36;;;;;;;4.33;3.60;;;31.20;20.20;;;;;;5036690;28;21009;-85
2021/04/22 12:25:09;;;;;;;5.20;3.97;;;31.90;20.50;;;;;;5037032;28;20495;-85
2021/04/22 12:27:36;;;;;;;7.10;3.83;;;31.50;19.00;;;;;;5047894;28;20958;-84
2021/04/22 12:30:19;;;;;;;4.10;3.53;;;29.40;20.20;;;;;;5052987;28;20499;-85
2021/04/22 12:32:57;;;;;;;5.00;4.47;;;30.40;20.60;;;;;;5039990;28;21507;-85
2021/04/22 12:35:26;;;;;;;6.63;4.80;;;31.70;20.40;;;;;;5045753;22;20490;-85
2021/04/22 12:37:56;;;;;;;4.03;3.53;;;31.70;19.90;;;;;;5030604;28;20505;-85